Map

Track Data

SID SEASON NUMBER BASIN SUBBASIN NAME ISO_TIME NATURE LAT LON WMO_WIND WMO_PRES WMO_AGENCY TRACK_TYPE DIST2LAND LANDFALL IFLAG USA_AGENCY USA_ATCF_ID USA_LAT USA_LON USA_RECORD USA_STATUS USA_WIND USA_PRES USA_SSHS USA_R34_NE USA_R34_SE USA_R34_SW USA_R34_NW USA_R50_NE USA_R50_SE USA_R50_SW USA_R50_NW USA_R64_NE USA_R64_SE USA_R64_SW USA_R64_NW USA_POCI USA_ROCI USA_RMW USA_EYE TOKYO_LAT TOKYO_LON TOKYO_GRADE TOKYO_WIND TOKYO_PRES TOKYO_R50_DIR TOKYO_R50_LONG TOKYO_R50_SHORT TOKYO_R30_DIR TOKYO_R30_LONG TOKYO_R30_SHORT TOKYO_LAND CMA_LAT CMA_LON CMA_CAT CMA_WIND CMA_PRES HKO_LAT HKO_LON HKO_CAT HKO_WIND HKO_PRES NEWDELHI_LAT NEWDELHI_LON NEWDELHI_GRADE NEWDELHI_WIND NEWDELHI_PRES NEWDELHI_CI NEWDELHI_DP NEWDELHI_POCI REUNION_LAT REUNION_LON REUNION_TYPE REUNION_WIND REUNION_PRES REUNION_TNUM REUNION_CI REUNION_RMW REUNION_R34_NE REUNION_R34_SE REUNION_R34_SW REUNION_R34_NW REUNION_R50_NE REUNION_R50_SE REUNION_R50_SW REUNION_R50_NW REUNION_R64_NE REUNION_R64_SE REUNION_R64_SW REUNION_R64_NW BOM_LAT BOM_LON BOM_TYPE BOM_WIND BOM_PRES BOM_TNUM BOM_CI BOM_RMW BOM_R34_NE BOM_R34_SE BOM_R34_SW BOM_R34_NW BOM_R50_NE BOM_R50_SE BOM_R50_SW BOM_R50_NW BOM_R64_NE BOM_R64_SE BOM_R64_SW BOM_R64_NW BOM_ROCI BOM_POCI BOM_EYE BOM_POS_METHOD BOM_PRES_METHOD NADI_LAT NADI_LON NADI_CAT NADI_WIND NADI_PRES WELLINGTON_LAT WELLINGTON_LON WELLINGTON_WIND WELLINGTON_PRES DS824_LAT DS824_LON DS824_STAGE DS824_WIND DS824_PRES TD9636_LAT TD9636_LON TD9636_STAGE TD9636_WIND TD9636_PRES TD9635_LAT TD9635_LON TD9635_WIND TD9635_PRES TD9635_ROCI NEUMANN_LAT NEUMANN_LON NEUMANN_CLASS NEUMANN_WIND NEUMANN_PRES MLC_LAT MLC_LON MLC_CLASS MLC_WIND MLC_PRES USA_GUST BOM_GUST BOM_GUST_PER REUNION_GUST REUNION_GUST_PER USA_SEAHGT USA_SEARAD_NE USA_SEARAD_SE USA_SEARAD_SW USA_SEARAD_NW STORM_SPEED STORM_DIR
1926139N09085 1926 21 NI BB NOT_NAMED 1926-05-19 00:00:00 TS 9.20000 84.6000 main 356 356 _________O____ -1 9.20000 84.6000 TC 34 9 68
1926139N09085 1926 21 NI BB NOT_NAMED 1926-05-19 03:00:00 TS 9.36013 85.0033 main 405 405 _________PO___ -1 9.44020 85.2049 TC 36 9.20000 84.6000 2 10 67
1926139N09085 1926 21 NI BB NOT_NAMED 1926-05-19 06:00:00 TS 9.60282 85.5579 main 474 474 _________OP___ -1 9.70000 85.8000 TC 39 9.45705 85.1948 2 12 65
1926139N09085 1926 21 NI BB NOT_NAMED 1926-05-19 09:00:00 TS 9.87605 86.1195 main 538 538 _________PP___ -1 9.99244 86.3725 TC 42 9.72087 85.7821 2 12 63
1926139N09085 1926 21 NI BB NOT_NAMED 1926-05-19 12:00:00 TS 10.1496 86.6266 main 597 597 _________OP___ -1 10.3000 86.9000 TC 45 9.99923 86.3533 2 12 60
1926139N09085 1926 21 NI BB NOT_NAMED 1926-05-19 15:00:00 TS 10.4424 87.1326 main 661 661 _________PO___ -1 10.5849 87.3652 TC 45 10.3000 86.9000 3 11 57
1926139N09085 1926 21 NI BB NOT_NAMED 1926-05-19 18:00:00 TS 10.7641 87.6072 main 729 729 _________OP___ -1 10.9000 87.8000 TC 45 10.6282 87.4144 3 12 53
1926139N09085 1926 21 NI BB NOT_NAMED 1926-05-19 21:00:00 TS 11.1349 88.0812 main 793 793 _________PP___ -1 11.2925 88.2724 TC 45 10.9773 87.8900 3 12 50
1926139N09085 1926 21 NI BB NOT_NAMED 1926-05-20 00:00:00 TS 11.5188 88.5103 main 795 741 _________OP___ -1 11.7000 88.7000 TC 45 11.3377 88.3206 3 11 46
1926139N09085 1926 21 NI BB NOT_NAMED 1926-05-20 03:00:00 TS 11.8787 88.8651 main 733 686 _________PO___ -1 12.0574 89.0302 TC 49 11.7000 88.7000 3 10 43
1926139N09085 1926 21 NI BB NOT_NAMED 1926-05-20 06:00:00 TS 12.2208 89.1710 main 686 649 _________OP___ -1 12.4000 89.3000 TC 54 12.0416 89.0419 3 9 40
1926139N09085 1926 21 NI BB NOT_NAMED 1926-05-20 09:00:00 TS 12.5636 89.4490 main 642 596 _________PP___ -1 12.7425 89.5651 TC 59 12.3847 89.3329 3 9 36
1926139N09085 1926 21 NI BB NOT_NAMED 1926-05-20 12:00:00 TS 12.9177 89.6912 main 596 552 _________OP___ -1 13.1000 89.8000 TC 64 12.7354 89.5825 3 9 31
1926139N09085 1926 21 NI BB NOT_NAMED 1926-05-20 15:00:00 TS 13.2962 89.9075 main 552 510 _________PO___ -1 13.4925 90.0150 TC 64 13.1000 89.8000 4 9 27
1926139N09085 1926 21 NI BB NOT_NAMED 1926-05-20 18:00:00 TS 13.7008 90.0960 main 510 479 _________OP___ -1 13.9000 90.2000 TC 64 13.5016 89.9919 4 9 22
1926139N09085 1926 21 NI BB NOT_NAMED 1926-05-20 21:00:00 TS 14.1148 90.2503 main 469 441 _________PP___ -1 14.3149 90.3426 TC 64 13.9147 90.1580 4 9 21
1926139N09085 1926 21 NI BB NOT_NAMED 1926-05-21 00:00:00 TS 14.5102 90.4100 main 441 408 _________OP___ -1 14.7000 90.5000 TC 64 14.3204 90.3201 4 8 26
1926139N09085 1926 21 NI BB NOT_NAMED 1926-05-21 03:00:00 TS 14.8575 90.6175 main 405 367 _________PO___ -1 15.0150 90.7350 TC 64 14.7000 90.5000 4 8 36
1926139N09085 1926 21 NI BB NOT_NAMED 1926-05-21 06:00:00 TS 15.1218 90.8727 main 367 341 _________OP___ -1 15.3000 91.0000 TC 64 14.9437 90.7453 4 7 45
1926139N09085 1926 21 NI BB NOT_NAMED 1926-05-21 09:00:00 TS 15.3489 91.1331 main 341 301 _________PP___ -1 15.5250 91.2578 TC 64 15.1729 91.0084 4 8 41
1926139N09085 1926 21 NI BB NOT_NAMED 1926-05-21 12:00:00 TS 15.6828 91.3836 main 301 278 _________OP___ -1 15.9000 91.5000 TC 64 15.4656 91.2673 4 10 27
1926139N09085 1926 21 NI BB NOT_NAMED 1926-05-21 15:00:00 TS 16.2588 91.6112 main 279 270 _________PO___ -1 16.6175 91.7223 TC 64 15.9000 91.5000 4 14 15
1926139N09085 1926 21 NI BB NOT_NAMED 1926-05-21 18:00:00 TS 17.0430 91.7737 main 272 232 _________OP___ -1 17.5000 91.9000 TC 64 16.5860 91.6474 4 17 9
1926139N09085 1926 21 NI BB NOT_NAMED 1926-05-21 21:00:00 TS 17.8860 91.8788 main 226 181 _________PP___ -1 18.3574 91.9857 TC 64 17.4147 91.7720 4 17 7
1926139N09085 1926 21 NI BB NOT_NAMED 1926-05-22 00:00:00 TS 18.7555 92.0052 main 173 99 _________OP___ -1 19.2000 92.1000 TC 64 18.3111 91.9104 4 17 11
1926139N09085 1926 21 NI BB NOT_NAMED 1926-05-22 03:00:00 TS 19.5825 92.2276 main 91 20 _________PO___ -1 19.9650 92.3551 TC 55 19.2000 92.1000 4 17 18
1926139N09085 1926 21 NI BB NOT_NAMED 1926-05-22 06:00:00 TS 20.3601 92.5437 main 15 0 _________OP___ -1 20.7000 92.7000 TC 47 20.0202 92.3874 4 17 22
1926139N09085 1926 21 NI BB NOT_NAMED 1926-05-22 09:00:00 TS 21.1500 92.9117 main 0 0 _________PP___ -1 21.4875 93.0923 TC 38 20.8124 92.7311 4 17 25
1926139N09085 1926 21 NI BB NOT_NAMED 1926-05-22 12:00:00 TS 21.8742 93.3047 main 0 0 _________OP___ -1 22.2000 93.5000 TC 30 21.5484 93.1095 4 15 28
1926139N09085 1926 21 NI BB NOT_NAMED 1926-05-22 15:00:00 TS 22.4761 93.6753 main 0 0 _________PO___ -1 22.7523 93.8506 TC 30 22.2000 93.5000 1 13 32
1926139N09085 1926 21 NI BB NOT_NAMED 1926-05-22 18:00:00 TS 22.9421 94.0194 main 0 0 _________OP___ -1 23.2000 94.2000 TC 30 22.7486 93.8840 1 11 36
1926139N09085 1926 21 NI BB NOT_NAMED 1926-05-22 21:00:00 TS 23.3709 94.3906 main 0 0 _________PP___ -1 23.6078 94.5869 TC 30 23.2129 94.2598 1 11 40
1926139N09085 1926 21 NI BB NOT_NAMED 1926-05-23 00:00:00 TS 23.7472 94.7538 main 0 0 _________OP___ -1 24.0000 95.0000 TC 30 23.6208 94.6307 1 8 42
1926139N09085 1926 21 NI BB NOT_NAMED 1926-05-23 03:00:00 NR 24.0000 95.0000 main 0 __________O___ -1 TC 24.0000 95.0000 1 7 42

About IBTrACS Database

This database is a web-friendly format of International Best Track Archive for Climate Stewardship (IBTrACS), a global best track data archive curated by NOAA dating back to 1842.

Updated: 2021-12-01